Time;durP1;ratioP1;P1;durP2;ratioP2;P2;SDS_P1;SDS_P2;PMS_P1;PMS_P2;Temp;Humidity;BMP_temperature;BMP_pressure;BME280_temperature;BME280_humidity;BME280_pressure;Samples;Min_cycle;Max_cycle;Signal;HPM_P1;HPM_P2
2022/06/15 00:00:44;;;;;;;5.28;3.77;;;;;;;15.17;60.46;99847.74;1698919;83;21846;-75
2022/06/15 00:03:12;;;;;;;7.90;3.90;;;;;;;15.17;60.34;99847.20;1698535;84;21527;-77
2022/06/15 00:05:42;;;;;;;11.75;5.17;;;;;;;15.17;60.15;99847.20;1697140;82;21052;-75
2022/06/15 00:08:10;;;;;;;12.85;4.85;;;;;;;15.18;60.08;99841.24;1684839;83;21603;-75
2022/06/15 00:10:40;;;;;;;7.53;4.22;;;;;;;15.17;60.01;99842.33;1670366;84;21039;-76
2022/06/15 00:13:08;;;;;;;8.13;4.58;;;;;;;15.15;60.03;99835.84;1689068;83;21025;-78
2022/06/15 00:15:36;;;;;;;6.42;3.70;;;;;;;15.13;60.12;99839.36;1632897;84;21062;-77
2022/06/15 00:18:03;;;;;;;8.13;4.83;;;;;;;15.09;60.17;99836.13;1672640;85;20968;-79
2022/06/15 00:20:29;;;;;;;6.08;3.90;;;;;;;15.06;60.27;99829.34;1672552;85;21056;-81
2022/06/15 00:22:56;;;;;;;6.47;3.83;;;;;;;15.04;60.35;99832.08;1677343;83;21004;-77
2022/06/15 00:25:23;;;;;;;7.67;4.45;;;;;;;15.01;60.46;99836.13;1698511;83;21137;-77
2022/06/15 00:27:51;;;;;;;6.83;3.42;;;;;;;14.98;60.56;99831.28;1673396;83;20991;-81
2022/06/15 00:30:21;;;;;;;9.00;4.12;;;;;;;14.95;60.70;99830.48;1673902;84;20996;-80
2022/06/15 00:32:48;;;;;;;6.70;5.33;;;;;;;14.92;60.82;99832.37;1675070;84;21538;-77
2022/06/15 00:35:17;;;;;;;9.40;4.35;;;;;;;14.91;60.97;99832.13;1677057;83;21579;-80
2022/06/15 00:37:44;;;;;;;7.83;4.28;;;;;;;14.90;61.08;99827.78;1670337;84;21066;-79
2022/06/15 00:40:11;;;;;;;5.90;3.92;;;;;;;14.88;61.18;99833.19;1689159;84;21628;-80
2022/06/15 00:42:40;;;;;;;7.85;4.03;;;;;;;14.87;61.33;99838.36;1659464;85;20945;-82
2022/06/15 00:45:09;;;;;;;9.55;4.20;;;;;;;14.85;61.42;99835.92;1690435;84;21020;-80
2022/06/15 00:47:38;;;;;;;7.15;3.25;;;;;;;14.84;61.55;99835.10;1683824;83;21087;-77
2022/06/15 00:50:18;;;;;;;6.87;4.00;;;;;;;14.84;61.70;99836.45;1655921;86;21093;-78
2022/06/15 00:53:05;;;;;;;10.43;3.95;;;;;;;14.84;61.74;99827.52;1669129;84;21105;-80
2022/06/15 00:55:33;;;;;;;6.97;3.77;;;;;;;14.86;61.90;99827.26;1627906;87;21627;-79
2022/06/15 00:58:03;;;;;;;7.83;4.25;;;;;;;14.84;62.07;99828.33;1718536;81;21032;-79
2022/06/15 01:00:30;;;;;;;5.60;3.22;;;;;;;14.85;62.07;99831.86;1752407;81;21111;-80
2022/06/15 01:02:57;;;;;;;6.08;3.67;;;;;;;14.84;62.15;99828.88;1752630;81;22114;-82
2022/06/15 01:05:47;;;;;;;5.85;3.17;;;;;;;14.83;62.31;99829.95;1752857;81;21498;-79
2022/06/15 01:08:36;;;;;;;4.35;2.83;;;;;;;14.80;62.50;99831.33;1726425;81;21497;-79
2022/06/15 01:11:37;;;;;;;4.72;3.15;;;;;;;14.78;62.73;99834.02;1727455;81;21555;-82
2022/06/15 01:14:38;;;;;;;5.47;3.90;;;;;;;14.74;62.97;99831.59;1755797;79;21116;-80
2022/06/15 01:17:44;;;;;;;9.80;2.92;;;;;;;14.69;63.12;99835.67;1744743;81;21040;-82
2022/06/15 01:20:23;;;;;;;4.60;2.83;;;;;;;14.64;63.54;99834.31;1719247;83;21031;-84
2022/06/15 01:23:19;;;;;;;7.45;3.33;;;;;;;14.58;63.78;99834.08;1719037;83;21377;-78
2022/06/15 01:25:57;;;;;;;4.08;2.50;;;;;;;14.54;63.96;99832.44;1725164;81;20966;-84
2022/06/15 01:28:48;;;;;;;5.72;3.22;;;;;;;14.49;64.24;99837.84;1743095;81;20975;-85
2022/06/15 01:31:44;;;;;;;7.15;2.58;;;;;;;14.44;64.47;99836.50;1755939;81;21904;-82
2022/06/15 01:34:43;;;;;;;4.90;2.95;;;;;;;14.38;64.92;99839.77;1748270;81;21527;-78
2022/06/15 01:37:26;;;;;;;7.95;2.90;;;;;;;14.32;65.26;99839.46;1703344;82;21098;-78
2022/06/15 01:40:02;;;;;;;;;;;;;;;14.28;65.59;99841.63;1723377;82;21091;-81
2022/06/15 01:42:40;;;;;;;6.20;3.17;;;;;;;14.24;65.82;99847.31;1726124;81;20341;-78
2022/06/15 01:45:12;;;;;;;10.30;4.03;;;;;;;14.20;66.07;99845.66;1739886;81;21007;-79
2022/06/15 01:47:39;;;;;;;5.55;2.95;;;;;;;14.17;66.23;99848.11;1718450;82;20928;-78
2022/06/15 01:50:19;;;;;;;5.83;2.65;;;;;;;14.15;66.40;99848.36;1719282;83;20983;-77
2022/06/15 01:52:56;;;;;;;5.35;3.17;;;;;;;14.11;66.66;99847.81;1718472;83;21168;-78
2022/06/15 01:55:38;;;;;;;4.37;3.25;;;;;;;14.11;66.81;99850.52;1708218;82;21150;-78
2022/06/15 01:58:09;;;;;;;6.28;3.92;;;;;;;14.08;66.94;99853.24;1698945;82;21566;-79
2022/06/15 02:00:37;;;;;;;8.60;3.98;;;;;;;14.06;67.00;99856.73;1732773;82;20982;-78
2022/06/15 02:03:31;;;;;;;7.75;4.55;;;;;;;14.04;67.06;99856.75;1732634;82;21026;-78
2022/06/15 02:06:16;;;;;;;;;;;;;;;14.01;67.25;99855.38;1704231;82;21579;-78
2022/06/15 02:08:55;;;;;;;9.30;3.92;;;;;;;14.00;67.34;99857.02;1728392;81;21013;-78
2022/06/15 02:11:39;;;;;;;5.58;3.17;;;;;;;13.96;67.60;99856.72;1728092;81;20979;-79
2022/06/15 02:14:22;;;;;;;13.32;4.37;;;;;;;13.93;67.95;99861.33;1714472;82;21498;-79
2022/06/15 02:16:57;;;;;;;7.22;3.65;;;;;;;13.88;68.14;99858.07;1732797;81;21038;-79
2022/06/15 02:19:32;;;;;;;6.53;3.58;;;;;;;13.86;68.44;99862.92;1697553;83;21010;-79
2022/06/15 02:22:05;;;;;;;;;;;;;;;13.83;68.64;99866.17;1706524;84;21029;-79
2022/06/15 02:24:32;;;;;;;;;;;;;;;13.81;68.86;99862.13;1706180;84;21143;-83
2022/06/15 02:26:59;;;;;;;7.83;3.47;;;;;;;13.78;69.02;99863.98;1713228;81;20163;-80
2022/06/15 02:29:27;;;;;;;9.90;3.62;;;;;;;13.74;69.17;99865.07;1697924;83;21560;-80
2022/06/15 02:31:56;;;;;;;4.35;3.47;;;;;;;13.73;69.34;99864.78;1720423;83;21635;-81
2022/06/15 02:34:25;;;;;;;6.37;4.22;;;;;;;13.75;69.44;99869.41;1756796;81;21053;-80
2022/06/15 02:36:52;;;;;;;7.45;3.87;;;;;;;13.79;69.50;99872.37;1734533;81;21134;-80
2022/06/15 02:39:20;;;;;;;5.20;3.12;;;;;;;13.82;69.59;99873.19;1726135;83;21505;-79
2022/06/15 02:41:58;;;;;;;8.45;3.70;;;;;;;13.86;69.54;99871.03;1726435;82;20928;-79
2022/06/15 02:44:26;;;;;;;9.03;4.37;;;;;;;13.91;69.46;99871.58;1728390;80;21068;-80
2022/06/15 02:46:53;;;;;;;8.33;4.50;;;;;;;13.92;69.34;99877.27;1733627;81;21026;-81
2022/06/15 02:49:20;;;;;;;7.45;5.37;;;;;;;13.91;69.25;99870.23;1726570;83;21863;-81
2022/06/15 02:51:57;;;;;;;7.85;6.05;;;;;;;13.88;69.24;99877.00;1732609;82;21516;-81
2022/06/15 02:54:35;;;;;;;9.23;5.22;;;;;;;13.86;69.35;99878.36;1701920;82;21508;-81
2022/06/15 02:57:04;;;;;;;11.75;4.97;;;;;;;13.83;69.46;99879.69;1741806;80;21530;-81
2022/06/15 02:59:32;;;;;;;10.60;4.95;;;;;;;13.80;69.68;99880.23;1661513;84;21545;-81
2022/06/15 03:02:00;;;;;;;8.85;5.70;;;;;;;13.79;69.84;99879.95;1688368;83;21831;-79
2022/06/15 03:04:27;;;;;;;7.17;5.08;;;;;;;13.78;69.89;99883.73;1712978;82;21577;-82
2022/06/15 03:06:53;;;;;;;10.98;5.60;;;;;;;13.78;70.06;99884.27;1693554;82;21082;-83
2022/06/15 03:09:21;;;;;;;6.97;4.22;;;;;;;13.77;70.10;99888.86;1714366;83;21071;-84
2022/06/15 03:11:49;;;;;;;7.00;4.90;;;;;;;13.78;70.16;99882.91;1716766;81;20993;-88
2022/06/15 03:14:23;;;;;;;7.00;4.90;;;;;;;13.77;70.28;99888.86;1711369;83;21544;-89
2022/06/15 03:16:50;;;;;;;8.35;4.17;;;;;;;13.79;70.42;99882.66;1710135;83;21051;-84
2022/06/15 03:19:18;;;;;;;10.03;5.12;;;;;;;13.82;70.54;99880.76;1711527;83;21478;-85
2022/06/15 03:21:48;;;;;;;9.28;4.95;;;;;;;13.88;70.49;99877.53;1688929;83;21059;-83
2022/06/15 03:24:14;;;;;;;6.95;4.85;;;;;;;13.94;70.48;99877.83;1687292;83;21099;-81
2022/06/15 03:26:41;;;;;;;9.25;4.65;;;;;;;14.00;70.41;99883.53;1731535;82;22183;-78
2022/06/15 03:29:09;;;;;;;6.78;4.90;;;;;;;14.03;70.39;99881.63;1711117;82;21560;-79
2022/06/15 03:31:36;;;;;;;9.30;5.65;;;;;;;14.07;70.47;99891.37;1711043;83;20999;-79
2022/06/15 03:34:03;;;;;;;7.78;4.05;;;;;;;14.06;70.50;99894.61;1700356;83;21003;-80
2022/06/15 03:36:30;;;;;;;3.50;2.92;;;;;;;14.07;70.73;99895.42;1713177;82;21075;-79
2022/06/15 03:38:57;;;;;;;9.68;4.17;;;;;;;14.07;70.87;99907.05;1744622;81;21811;-80
2022/06/15 03:41:26;;;;;;;6.58;3.60;;;;;;;14.07;71.03;99903.00;1734695;82;20984;-80
2022/06/15 03:43:54;;;;;;;5.05;3.15;;;;;;;14.08;71.27;99898.41;1725553;81;21026;-81
2022/06/15 03:46:23;;;;;;;6.15;2.55;;;;;;;14.10;71.45;99894.91;1714563;81;21011;-81
2022/06/15 03:48:51;;;;;;;11.38;3.25;;;;;;;14.13;71.63;99910.59;1727343;82;21006;-85
2022/06/15 03:51:18;;;;;;;6.22;4.05;;;;;;;14.15;71.64;99903.03;1745654;82;21488;-86
2022/06/15 03:53:47;;;;;;;6.65;2.85;;;;;;;14.19;71.77;99901.41;1724301;82;21053;-84
2022/06/15 03:56:13;;;;;;;8.73;3.45;;;;;;;14.25;71.76;99905.73;1746245;81;21114;-85
2022/06/15 03:58:40;;;;;;;5.12;3.27;;;;;;;14.27;71.87;99904.39;1722971;81;21118;-84
2022/06/15 04:01:07;;;;;;;7.10;2.90;;;;;;;14.31;71.86;99906.83;1720136;83;21536;-84
2022/06/15 04:03:33;;;;;;;7.20;3.10;;;;;;;14.35;71.78;99901.69;1722601;82;21438;-85
2022/06/15 04:06:05;;;;;;;6.90;3.65;;;;;;;14.38;71.82;99910.13;1721063;82;21015;-84
2022/06/15 04:08:39;;;;;;;5.80;2.60;;;;;;;14.43;71.76;99911.20;1718614;82;21098;-85
2022/06/15 04:14:01;;;;;;;4.97;2.95;;;;;;;14.52;71.70;99914.46;1739162;81;21073;-87
2022/06/15 04:16:28;;;;;;;3.60;3.00;;;;;;;14.58;71.44;99913.93;1729248;81;21894;-88
2022/06/15 04:19:02;;;;;;;4.70;3.05;;;;;;;14.63;71.42;99921.48;1722214;82;21003;-84
2022/06/15 04:21:26;;;;;;;4.75;2.00;;;;;;;14.70;71.21;99923.39;1722338;83;20928;-77
2022/06/15 04:23:54;;;;;;;4.92;3.00;;;;;;;14.75;70.91;99928.00;1722540;82;21094;-82
2022/06/15 04:26:21;;;;;;;3.10;2.17;;;;;;;14.78;70.40;99926.09;1738969;81;21022;-83
2022/06/15 04:28:49;;;;;;;6.08;1.92;;;;;;;14.78;69.95;99928.25;1743906;81;21138;-81
2022/06/15 04:31:21;;;;;;;4.45;2.08;;;;;;;14.79;70.23;99926.36;1719013;82;20964;-79
2022/06/15 04:33:48;;;;;;;3.90;2.92;;;;;;;14.81;70.26;99926.91;1717886;83;21035;-85
2022/06/15 04:36:15;;;;;;;4.22;2.15;;;;;;;14.84;70.18;99927.17;1716889;83;21705;-84
2022/06/15 04:38:44;;;;;;;6.35;2.12;;;;;;;14.85;70.34;99921.22;1699399;82;20995;-86
2022/06/15 04:41:11;;;;;;;3.25;2.17;;;;;;;14.90;70.42;99923.11;1727504;81;21120;-82
2022/06/15 04:43:39;;;;;;;3.77;2.20;;;;;;;14.95;70.38;99933.41;1755888;81;21006;-83
2022/06/15 04:46:08;;;;;;;4.37;1.90;;;;;;;15.01;69.77;99927.44;1737351;81;20970;-85
2022/06/15 04:48:35;;;;;;;2.87;2.35;;;;;;;15.06;69.23;99939.63;1718528;82;21142;-83
2022/06/15 04:51:18;;;;;;;4.95;2.25;;;;;;;15.09;69.17;99945.84;1700099;83;21086;-82
2022/06/15 04:53:50;;;;;;;4.10;2.20;;;;;;;15.09;69.11;99934.47;1722683;82;21342;-81
2022/06/15 04:56:19;;;;;;;3.90;2.10;;;;;;;15.11;69.24;99931.46;1721151;83;21061;-83
2022/06/15 04:58:46;;;;;;;4.15;2.05;;;;;;;15.14;69.18;99935.81;1713613;81;21068;-82
2022/06/15 05:01:15;;;;;;;5.72;3.05;;;;;;;15.17;68.89;99924.96;1706772;84;20992;-83
2022/06/15 05:03:42;;;;;;;3.60;2.70;;;;;;;15.19;69.02;99928.22;1708163;84;21061;-83
2022/06/15 05:06:19;;;;;;;2.58;2.00;;;;;;;15.23;68.94;99931.45;1706801;84;21087;-83
2022/06/15 05:08:48;;;;;;;2.37;2.15;;;;;;;15.29;68.65;99925.49;1680824;83;21592;-81
2022/06/15 05:11:17;;;;;;;3.05;2.30;;;;;;;15.34;68.04;99927.38;1692476;83;21045;-82
2022/06/15 05:13:46;;;;;;;7.55;2.77;;;;;;;15.36;67.44;99934.67;1721501;82;20967;-84
2022/06/15 05:16:14;;;;;;;3.52;2.30;;;;;;;15.37;67.91;99925.45;1703591;83;21100;-83
2022/06/15 05:18:40;;;;;;;3.75;2.40;;;;;;;15.39;67.86;99937.66;1702735;82;21246;-84
2022/06/15 05:21:10;;;;;;;3.05;2.15;;;;;;;15.42;67.75;99937.10;1695736;81;21036;-82
2022/06/15 05:23:37;;;;;;;4.15;3.67;;;;;;;15.46;67.57;99938.71;1700904;82;20998;-83
2022/06/15 05:26:08;;;;;;;3.35;2.00;;;;;;;15.48;67.09;99941.97;1677051;84;21091;-82
2022/06/15 05:28:37;;;;;;;2.75;1.95;;;;;;;15.50;66.90;99941.95;1717266;81;21021;-82
2022/06/15 05:31:11;;;;;;;4.45;2.22;;;;;;;15.52;66.28;99953.91;1698737;84;21144;-83
2022/06/15 05:33:40;;;;;;;3.02;1.95;;;;;;;15.53;66.60;99941.98;1703021;84;21479;-81
2022/06/15 05:36:10;;;;;;;3.35;2.33;;;;;;;15.56;66.82;99943.59;1704257;84;21066;-79
2022/06/15 05:38:38;;;;;;;6.10;1.85;;;;;;;15.62;66.67;99937.08;1680006;83;20958;-80
2022/06/15 05:41:05;;;;;;;3.77;2.33;;;;;;;15.67;66.55;99940.31;1701421;83;21141;-79
2022/06/15 05:43:40;;;;;;;3.27;2.08;;;;;;;15.74;65.88;99952.20;1702602;82;21023;-80
2022/06/15 05:46:16;;;;;;;2.92;1.98;;;;;;;15.79;64.79;99955.70;1704026;84;21514;-81
2022/06/15 05:48:43;;;;;;;2.47;2.15;;;;;;;15.83;64.70;99953.24;1703648;83;21068;-80
2022/06/15 05:51:09;;;;;;;4.03;1.95;;;;;;;15.82;63.11;99961.13;1701866;83;21088;-78
2022/06/15 05:53:38;;;;;;;2.77;1.80;;;;;;;15.80;63.14;99961.41;1700952;83;21534;-79
2022/06/15 05:56:04;;;;;;;4.17;2.40;;;;;;;15.80;62.70;99952.45;1679545;83;21205;-78
2022/06/15 05:58:31;;;;;;;5.50;1.98;;;;;;;15.80;62.80;99953.81;1685985;82;21047;-82
2022/06/15 06:01:12;;;;;;;2.95;1.90;;;;;;;15.80;62.89;99949.73;1709765;82;21623;-82
2022/06/15 06:03:39;;;;;;;3.25;2.37;;;;;;;15.83;63.37;99952.70;1708517;83;21481;-84
2022/06/15 06:06:05;;;;;;;1.50;1.32;;;;;;;15.90;63.40;99960.01;1709520;84;21063;-84
2022/06/15 06:08:34;;;;;;;4.97;2.45;;;;;;;15.96;62.88;99956.19;1709301;82;20943;-83
2022/06/15 06:11:02;;;;;;;3.05;1.72;;;;;;;16.00;62.04;99954.54;1710823;83;20972;-85
2022/06/15 06:13:29;;;;;;;4.50;2.47;;;;;;;16.04;61.47;99972.42;1662315;84;20945;-84
2022/06/15 06:15:56;;;;;;;4.65;2.15;;;;;;;16.07;60.98;99957.73;1713870;81;20967;-83
2022/06/15 06:18:24;;;;;;;3.15;1.90;;;;;;;16.08;61.14;99956.66;1711830;82;21028;-87
2022/06/15 06:20:52;;;;;;;2.40;1.75;;;;;;;16.11;61.68;99979.73;1711423;81;21899;-82
2022/06/15 06:23:19;;;;;;;1.60;1.50;;;;;;;16.14;61.05;99969.66;1712849;81;21483;-81
2022/06/15 06:25:50;;;;;;;3.08;2.00;;;;;;;16.16;60.49;99971.56;1711370;83;21053;-83
2022/06/15 06:28:33;;;;;;;4.25;1.75;;;;;;;16.19;60.70;99956.61;1696986;83;21056;-80
2022/06/15 06:31:03;;;;;;;4.70;2.75;;;;;;;16.20;59.19;99967.19;1710983;83;21035;-79
2022/06/15 06:33:34;;;;;;;2.42;1.75;;;;;;;16.23;59.50;99949.52;1689807;83;21564;-78
2022/06/15 06:36:05;;;;;;;2.75;2.08;;;;;;;16.26;59.41;99955.77;1711119;83;21007;-79
2022/06/15 06:38:32;;;;;;;3.22;1.85;;;;;;;16.29;59.06;99959.27;1714751;82;21063;-83
2022/06/15 06:40:59;;;;;;;2.85;1.57;;;;;;;16.32;58.79;99970.36;1714960;81;20968;-75
2022/06/15 06:43:26;;;;;;;4.10;1.72;;;;;;;16.37;59.04;99960.83;1750083;81;21062;-78
2022/06/15 06:45:53;;;;;;;6.40;1.80;;;;;;;16.41;59.21;99973.30;1750418;82;21115;-79
2022/06/15 06:48:19;;;;;;;4.67;1.87;;;;;;;16.44;58.79;99957.81;1732238;81;21329;-78
2022/06/15 06:50:46;;;;;;;2.83;1.70;;;;;;;16.49;57.98;99964.03;1726040;82;21061;-78
2022/06/15 06:53:13;;;;;;;7.15;2.15;;;;;;;16.54;57.01;99972.14;1714846;83;21615;-80
2022/06/15 06:55:39;;;;;;;5.72;2.00;;;;;;;16.58;57.00;99956.12;1714958;81;21563;-77
2022/06/15 06:58:06;;;;;;;5.83;1.60;;;;;;;16.62;57.05;99963.96;1751987;81;21582;-78
2022/06/15 07:00:34;;;;;;;3.45;1.75;;;;;;;16.66;57.80;99971.80;1732455;80;20975;-78
2022/06/15 07:03:01;;;;;;;4.33;1.90;;;;;;;16.72;56.36;99971.22;1716771;83;21053;-80
2022/06/15 07:05:28;;;;;;;3.58;2.20;;;;;;;16.76;55.80;99964.13;1716689;83;21628;-77
2022/06/15 07:07:55;;;;;;;3.35;1.90;;;;;;;16.78;54.75;99998.08;1717150;83;21054;-81
2022/06/15 07:10:26;;;;;;;2.85;2.40;;;;;;;16.79;55.08;99993.42;1720936;81;21156;-78
2022/06/15 07:12:53;;;;;;;3.20;2.25;;;;;;;16.78;54.68;99992.64;1722439;81;21018;-77
2022/06/15 07:15:20;;;;;;;2.95;2.10;;;;;;;16.80;55.15;99979.57;1744710;81;21032;-77
2022/06/15 07:17:47;;;;;;;3.17;1.42;;;;;;;16.85;54.75;99979.53;1721142;82;21027;-77
2022/06/15 07:20:13;;;;;;;3.95;2.98;;;;;;;16.90;54.33;99964.55;1723600;82;21110;-78
2022/06/15 07:22:40;;;;;;;4.22;1.85;;;;;;;16.94;54.55;99957.98;1721445;81;21062;-81
2022/06/15 07:25:08;;;;;;;4.10;2.02;;;;;;;17.03;54.83;99966.33;1727158;81;21010;-80
2022/06/15 07:27:37;;;;;;;4.12;1.98;;;;;;;17.11;54.40;99967.09;1739724;81;21562;-80
2022/06/15 07:30:06;;;;;;;4.75;2.15;;;;;;;17.16;54.51;99956.17;1717123;83;20919;-81
2022/06/15 07:32:35;;;;;;;3.37;2.40;;;;;;;17.23;54.57;99960.17;1717211;83;21070;-83
2022/06/15 07:35:06;;;;;;;6.20;2.90;;;;;;;17.33;54.21;99957.89;1695888;83;22199;-79
2022/06/15 07:37:35;;;;;;;3.70;2.52;;;;;;;17.39;53.93;99952.12;1719011;82;20951;-81
2022/06/15 07:40:01;;;;;;;1.62;1.40;;;;;;;17.48;54.10;99965.08;1728173;81;21054;-78
2022/06/15 07:42:29;;;;;;;2.60;1.50;;;;;;;17.56;52.88;99978.04;1670139;83;38785;-79
2022/06/15 07:44:57;;;;;;;3.52;1.80;;;;;;;17.60;51.67;99981.28;1721745;82;21072;-81
2022/06/15 07:50:09;;;;;;;4.97;1.67;;;;;;;17.67;50.49;99989.11;1739218;82;21132;-79
2022/06/15 07:52:40;;;;;;;2.30;1.65;;;;;;;17.69;50.64;99963.80;1702735;82;21012;-78
2022/06/15 07:55:09;;;;;;;1.80;1.67;;;;;;;17.72;50.67;99964.02;1725688;82;21104;-77
2022/06/15 07:57:36;;;;;;;1.50;1.40;;;;;;;17.75;50.05;99956.63;1719328;82;21177;-80
2022/06/15 08:00:09;;;;;;;1.60;1.40;;;;;;;17.78;50.25;99954.70;1695289;82;21974;-77
2022/06/15 08:02:37;;;;;;;2.17;1.82;;;;;;;17.86;51.03;99944.53;1668647;85;21066;-81
2022/06/15 08:05:05;;;;;;;4.97;1.90;;;;;;;17.96;50.46;99948.22;1673742;84;20993;-77
2022/06/15 08:07:32;;;;;;;2.50;1.40;;;;;;;18.05;49.53;99955.98;1672303;85;21061;-78
2022/06/15 08:09:58;;;;;;;5.67;1.55;;;;;;;18.12;48.65;99959.98;1680620;84;21503;-78
2022/06/15 08:12:25;;;;;;;4.20;1.77;;;;;;;18.17;48.22;99952.30;1671058;85;21196;-79
2022/06/15 08:14:58;;;;;;;7.47;1.52;;;;;;;18.19;48.32;99964.50;1672116;85;21105;-81
2022/06/15 08:17:41;;;;;;;7.72;1.52;;;;;;;18.23;49.13;99948.38;1671853;85;21538;-78
2022/06/15 08:20:33;;;;;;;2.47;1.80;;;;;;;18.28;45.95;99957.84;1733103;81;26236;-78
2022/06/15 08:23:04;;;;;;;2.63;1.67;;;;;;;18.35;46.71;99944.69;1701684;83;22392;-78
2022/06/15 08:25:40;;;;;;;2.60;1.50;;;;;;;18.42;46.88;99968.26;1721015;83;21170;-79
2022/06/15 08:28:08;;;;;;;3.87;1.45;;;;;;;18.43;47.56;99982.14;1686104;84;21085;-79
2022/06/15 08:30:36;;;;;;;3.60;1.47;;;;;;;18.44;47.32;99957.08;1675285;83;21043;-79
2022/06/15 08:33:04;;;;;;;3.20;1.40;;;;;;;18.47;47.33;99941.50;1714755;83;21066;-79
2022/06/15 08:35:31;;;;;;;3.22;1.32;;;;;;;18.53;46.01;99939.80;1692672;84;20968;-80
2022/06/15 08:37:58;;;;;;;3.90;1.50;;;;;;;18.61;46.64;99941.84;1679333;84;21747;-77
2022/06/15 08:40:27;;;;;;;4.60;1.25;;;;;;;18.73;46.22;99936.77;1672187;84;21029;-78
2022/06/15 08:43:10;;;;;;;2.05;1.30;;;;;;;18.83;46.09;99944.52;1654091;85;21030;-76
2022/06/15 08:45:43;;;;;;;4.12;1.47;;;;;;;18.91;45.68;99954.72;1674956;84;21090;-80
2022/06/15 08:48:30;;;;;;;2.37;1.50;;;;;;;18.96;44.00;99960.09;1751762;81;21599;-77
2022/06/15 08:51:21;;;;;;;1.37;1.22;;;;;;;18.98;44.78;99943.70;1656754;81;21540;-79
2022/06/15 08:54:19;;;;;;;1.75;1.00;;;;;;;19.03;44.13;99932.72;1734736;81;21082;-79
2022/06/15 08:56:56;;;;;;;2.25;1.02;;;;;;;19.09;43.98;99944.31;1730839;81;20951;-80
2022/06/15 08:59:50;;;;;;;3.77;1.82;;;;;;;19.16;44.60;99951.56;1709609;82;21127;-78
2022/06/15 09:02:25;;;;;;;4.80;1.20;;;;;;;19.21;43.84;99947.94;1712071;82;21054;-76
2022/06/15 09:05:31;;;;;;;2.08;1.17;;;;;;;19.28;44.39;99934.73;1701063;82;21095;-77
2022/06/15 09:08:05;;;;;;;;;;;;;;;19.39;44.27;99956.59;1704305;83;20953;-78
2022/06/15 09:10:50;;;;;;;2.47;1.30;;;;;;;19.48;43.23;99955.63;1696168;82;20477;-79
2022/06/15 09:13:25;;;;;;;1.40;1.17;;;;;;;19.51;42.72;99925.58;1717872;82;21009;-72
2022/06/15 09:16:16;;;;;;;5.50;1.00;;;;;;;19.57;42.83;99949.72;1709255;82;21046;-80
2022/06/15 09:19:08;;;;;;;2.10;1.20;;;;;;;19.64;43.55;99951.24;1703466;82;21427;-81
2022/06/15 09:21:45;;;;;;;1.40;1.30;;;;;;;19.66;43.19;99964.04;1676783;84;21041;-79
2022/06/15 09:24:16;;;;;;;1.17;1.00;;;;;;;19.66;42.29;99955.30;1713522;82;20992;-81
2022/06/15 09:26:50;;;;;;;;;;;;;;;19.69;42.19;99979.24;1701323;84;21040;-80
2022/06/15 09:29:45;;;;;;;4.62;1.25;;;;;;;19.68;42.24;99954.42;1698938;84;20166;-81
2022/06/15 09:32:18;;;;;;;1.30;1.20;;;;;;;19.73;42.62;99945.33;1679464;84;21369;-77
2022/06/15 09:34:50;;;;;;;1.42;0.90;;;;;;;19.77;42.14;99943.05;1681531;85;21523;-74
2022/06/15 09:37:20;;;;;;;1.50;1.00;;;;;;;19.81;42.45;99956.33;1689493;82;20956;-74
2022/06/15 09:39:47;;;;;;;1.60;1.07;;;;;;;19.90;41.53;99935.39;1702589;83;21060;-74
2022/06/15 09:42:41;;;;;;;1.12;1.00;;;;;;;19.99;41.51;99956.80;1723476;82;21034;-73
2022/06/15 09:45:32;;;;;;;1.90;1.12;;;;;;;20.12;41.75;99939.31;1720436;82;21089;-71
2022/06/15 09:48:24;;;;;;;1.10;1.00;;;;;;;20.23;41.89;99954.38;1698687;84;20979;-81
2022/06/15 09:51:06;;;;;;;1.90;1.42;;;;;;;20.24;42.00;99946.43;1718249;82;21492;-78
2022/06/15 09:54:13;;;;;;;2.90;1.02;;;;;;;20.33;41.25;99952.81;1698672;84;20984;-80
2022/06/15 09:56:40;;;;;;;3.52;1.17;;;;;;;20.36;41.58;99942.63;1715107;82;21106;-77
2022/06/15 09:59:10;;;;;;;2.25;0.80;;;;;;;20.41;41.46;99947.97;1714791;82;22833;-75
2022/06/15 10:01:41;;;;;;;0.88;0.88;;;;;;;20.45;41.20;99931.20;1751943;81;21047;-74
2022/06/15 10:04:23;;;;;;;2.60;1.10;;;;;;;20.47;40.13;99959.05;1727619;82;21008;-74
2022/06/15 10:07:11;;;;;;;1.25;1.02;;;;;;;20.44;40.18;99945.98;1729758;82;21636;-76
2022/06/15 10:09:41;;;;;;;4.25;1.65;;;;;;;20.37;40.27;99929.22;1729886;83;21033;-73
2022/06/15 10:15:21;;;;;;;1.42;0.78;;;;;;;20.41;41.21;99939.78;1714182;81;21533;-73
2022/06/15 10:17:54;;;;;;;0.82;0.70;;;;;;;20.51;39.66;99945.00;1715816;82;21023;-75
2022/06/15 10:20:32;;;;;;;1.90;1.20;;;;;;;20.60;39.26;99921.84;1721660;82;21141;-76
2022/06/15 10:23:01;;;;;;;2.37;1.12;;;;;;;20.67;39.14;99920.27;1732288;81;21136;-74
2022/06/15 10:25:31;;;;;;;3.02;0.80;;;;;;;20.74;39.45;99934.88;1754903;81;21928;-73
2022/06/15 10:28:33;;;;;;;1.30;0.60;;;;;;;20.81;39.34;99912.03;1726257;81;21045;-78
2022/06/15 10:31:08;;;;;;;2.42;1.52;;;;;;;20.88;38.53;99920.58;1723303;83;21622;-80
2022/06/15 10:33:40;;;;;;;6.42;1.62;;;;;;;20.95;37.27;99929.72;1677819;83;21076;-79
2022/06/15 10:36:21;;;;;;;1.75;1.02;;;;;;;21.09;37.25;99922.23;1674150;84;20955;-74
2022/06/15 10:38:54;;;;;;;1.42;0.88;;;;;;;21.09;37.25;99922.23;1668987;85;21264;-71
2022/06/15 10:44:05;;;;;;;1.17;0.90;;;;;;;21.20;38.19;99922.23;1638569;85;21065;-78
2022/06/15 10:46:52;;;;;;;3.05;1.47;;;;;;;21.15;37.60;99914.97;1723259;82;21535;-73
2022/06/15 10:49:19;;;;;;;1.72;1.27;;;;;;;21.22;37.34;99900.84;1724255;83;20988;-75
2022/06/15 10:51:46;;;;;;;2.92;1.47;;;;;;;21.22;37.34;99900.84;1730061;82;21664;-79
2022/06/15 11:02:06;;;;;;;2.60;1.10;;;;;;;21.34;38.38;99927.63;1729759;82;21486;-77
2022/06/15 11:02:48;;;;;;;1.07;0.70;;;;;;;21.51;37.67;99919.48;1731500;82;21042;-74
2022/06/15 11:05:21;;;;;;;1.92;0.82;;;;;;;21.57;37.50;99899.87;1731663;82;21140;-74
2022/06/15 11:07:52;;;;;;;1.35;1.00;;;;;;;21.67;37.20;99910.53;1732888;81;21067;-75
2022/06/15 11:10:36;;;;;;;0.70;0.70;;;;;;;21.76;36.14;99907.80;1737727;81;21596;-77
2022/06/15 11:13:21;;;;;;;0.87;0.70;;;;;;;21.82;36.31;99917.49;1768675;81;21505;-74
2022/06/15 11:18:45;;;;;;;2.60;1.15;;;;;;;21.74;36.29;99921.81;1722538;82;21542;-79
2022/06/15 11:21:20;;;;;;;1.00;0.80;;;;;;;21.75;36.32;99907.55;1696454;83;20935;-78
2022/06/15 11:24:12;;;;;;;1.27;1.02;;;;;;;21.73;36.57;99911.97;1734416;81;21088;-76
2022/06/15 11:27:01;;;;;;;2.77;0.95;;;;;;;21.78;37.03;99895.14;1750610;81;20973;-77
2022/06/15 11:29:42;;;;;;;2.45;1.12;;;;;;;21.88;37.17;99909.91;1768500;80;21001;-73
2022/06/15 11:32:46;;;;;;;1.40;0.95;;;;;;;21.89;36.81;99897.84;1768444;81;22337;-76
2022/06/15 11:35:34;;;;;;;0.60;0.60;;;;;;;21.93;36.63;99909.76;1737334;81;20967;-74
2022/06/15 11:38:47;;;;;;;4.55;1.50;;;;;;;21.92;35.90;99929.49;1726601;82;21511;-75
2022/06/15 11:41:35;;;;;;;4.80;1.10;;;;;;;21.92;35.65;99915.02;1731652;82;21066;-73
2022/06/15 11:44:06;;;;;;;0.50;0.50;;;;;;;21.99;35.44;99887.41;1749986;81;21543;-77
2022/06/15 11:46:58;;;;;;;1.20;0.90;;;;;;;22.06;35.59;99908.87;1768247;81;21457;-77
2022/06/15 11:49:47;;;;;;;1.35;1.20;;;;;;;22.09;36.39;99911.77;1768608;80;21049;-75
2022/06/15 11:52:34;;;;;;;2.02;1.10;;;;;;;22.08;36.11;99898.38;1767314;81;20994;-75
2022/06/15 11:55:26;;;;;;;1.85;1.00;;;;;;;22.09;36.58;99903.55;1736839;81;21002;-73
2022/06/15 11:58:27;;;;;;;1.15;1.05;;;;;;;22.07;36.54;99912.64;1731444;82;20974;-76
2022/06/15 12:01:44;;;;;;;1.82;0.93;;;;;;;22.18;36.21;99912.58;1666943;83;20978;-82
2022/06/15 12:04:40;;;;;;;3.42;1.72;;;;;;;22.27;34.97;99887.10;1722518;83;20975;-75
2022/06/15 12:07:22;;;;;;;2.25;0.70;;;;;;;22.41;34.10;99894.59;1667707;83;20967;-76
2022/06/15 12:10:13;;;;;;;2.17;0.80;;;;;;;22.59;33.51;99893.44;1710892;83;21544;-75
2022/06/15 12:12:51;;;;;;;2.77;1.10;;;;;;;22.70;33.92;99871.45;1709193;84;21527;-74
2022/06/15 12:15:44;;;;;;;1.45;0.85;;;;;;;22.82;33.85;99883.13;1709265;83;21248;-74
2022/06/15 12:18:23;;;;;;;1.00;1.00;;;;;;;22.78;34.31;99892.55;1709410;84;21083;-75
2022/06/15 12:21:06;;;;;;;1.25;0.90;;;;;;;22.66;34.65;99908.85;1709188;84;20979;-76
2022/06/15 12:23:59;;;;;;;0.93;0.93;;;;;;;22.47;34.93;99900.16;1714832;83;21092;-79
2022/06/15 12:26:40;;;;;;;2.80;1.00;;;;;;;22.28;35.58;99916.13;1696328;84;21054;-78